Weather observations for the past three days for
Curtis L Brown Jr. Field Airport
Imperial (Metric)
Date Time (edt) Wind (mph) Vis. (mi.) Weather Sky Cond. Temperature (ºF) Relative Humidity Wind Chill (°F) Heat Index (°F) Pressure Precipitation (in)
Air Dwpt 6 hour altimeter (in) sea level (mb) 1 hr 3 hr 6 hr
Max. Min.
06 13:55 SW 14 G 21 10.00 Fair CLR 81.9 59 83.8 65.1 46% 82 29.98 0.0
06 13:35 SW 13 G 22 10.00 Fair CLR 81.7 57.9 44% 82 29.99 0.0
06 13:15 SW 16 10.00 Fair CLR 81.9 57.9 44% 82 29.99 0.0
06 12:55 S 12 10.00 Fair CLR 80.8 57.6 45% 81 29.99 0.0
06 12:35 SW 13 G 20 10.00 Fair CLR 80.4 56.5 44% 81 29.99 0.0
06 12:15 SW 9 G 22 10.00 Fair CLR 79.9 56.8 45% 80 30 0.0
06 11:55 S 20 G 25 10.00 Fair CLR 80.1 56.3 44% 80 30.01 0.0
06 11:35 SW 14 10.00 Fair CLR 78.4 55.6 45% 79 30.02 0.0
06 11:15 SW 12 G 17 10.00 Fair CLR 77.5 56.1 48% 79 30.02 0.0
06 10:55 SW 12 G 20 10.00 Fair CLR 76.8 56.5 50% 78 30.02 0.0
06 10:35 SW 12 10.00 Fair CLR 74.8 56.5 53% 30.02 0.0
06 10:15 SW 17 G 23 10.00 Fair CLR 75 55.2 50% 78 30.02 0.0
06 09:55 SW 8 10.00 Fair CLR 73.9 57.7 57% 30.02 0.0
06 09:35 SW 14 10.00 Fair CLR 72.5 58.1 61% 30.02 0.0
06 09:15 S 12 G 20 10.00 Fair CLR 70.3 57.7 64% 30.01 0.0
06 08:55 SW 13 10.00 Fair CLR 70.9 58.6 65% 30.01 0.0
06 08:35 S 9 G 18 10.00 Fair CLR 69.1 58.8 70% 30.01 0.0
06 07:55 S 9 10.00 Fair CLR 64.8 59.2 64.9 59.5 82% 30 0.0
06 07:35 S 8 10.00 Fair CLR 63.3 59.2 86% 30 0.0
06 07:15 S 8 10.00 Fair CLR 62.1 59.2 90% 30 0.0
06 06:55 S 6 10.00 Fair CLR 60.8 59.2 94% 30 0.0
06 06:35 S 6 10.00 Fair CLR 60.3 58.8 95% 30 0.0
06 06:15 S 5 10.00 Fair CLR 60.4 58.8 94% 30.01 0.0
06 05:55 S 6 10.00 Fair CLR 60.6 58.8 94% 30 0.0
06 05:35 S 6 10.00 Fair CLR 60.6 58.8 94% 30 0.0
06 05:15 SW 6 10.00 Fair CLR 60.8 58.6 93% 30 0.0
06 04:55 S 6 10.00 Fair CLR 60.8 58.5 92% 29.99 0.0
06 04:35 S 6 10.00 Fair CLR 60.6 58.1 91% 30 0.0
06 04:15 S 6 10.00 Fair CLR 60.3 57.6 91% 29.99 0.0
06 03:55 S 7 10.00 Fair CLR 60.4 57.6 90% 29.99 0.0
06 03:35 S 6 10.00 Fair CLR 60.3 57.2 90% 30 0.0
06 03:15 S 6 10.00 Fair CLR 60.6 56.8 87% 29.99 0.0
06 02:55 S 7 10.00 Fair CLR 60.4 56.3 86% 29.99 0.0
06 02:35 S 7 10.00 Fair CLR 60.8 56.3 85% 30 0.0
06 02:15 S 7 10.00 Fair CLR 60.6 55.9 85% 30.01 0.0
06 01:55 S 7 10.00 Fair CLR 60.6 55.8 69.6 60.4 84% 30.01 0.0
06 01:35 S 7 10.00 Fair CLR 61.2 55.9 83% 30.02 0.0
06 01:15 S 6 10.00 Fair CLR 61.7 55.9 82% 30.02 0.0
06 00:55 S 7 10.00 Fair CLR 62.1 56.3 82% 30.03 0.0
06 00:35 S 8 10.00 Fair CLR 62.2 56.5 82% 30.03 0.0
06 00:15 S 9 10.00 Fair CLR 61.9 56.5 83% 30.04 0.0
05 23:55 S 7 10.00 Fair CLR 62.1 56.3 82% 30.04 0.0
05 23:35 S 9 10.00 Fair CLR 62.6 56.3 80% 30.05 0.0
05 23:15 S 8 10.00 Fair CLR 63.1 56.3 79% 30.05 0.0
05 22:55 S 9 10.00 Fair CLR 63.7 56.3 77% 30.05 0.0
05 22:35 S 8 10.00 Fair CLR 64.4 56.5 76% 30.05 0.0
05 22:15 S 9 10.00 Fair CLR 64.8 56.7 75% 30.05 0.0
05 21:55 S 9 10.00 Fair CLR 64.9 56.7 75% 30.04 0.0
05 21:35 S 8 10.00 Fair CLR 65.7 56.7 73% 30.03 0.0
05 21:15 S 8 10.00 Fair CLR 66.4 56.7 71% 30.03 0.0
05 20:55 S 9 10.00 Fair CLR 66.9 56.7 70% 30.03 0.0
05 20:35 S 10 10.00 Fair CLR 68 56.3 66% 30.02 0.0
05 20:15 S 12 10.00 Fair CLR 68.5 55.6 63% 30.02 0.0
05 19:55 S 12 G 20 10.00 Fair CLR 69.8 55.2 80.1 69.6 60% 30.01 0.0
05 19:35 S 14 G 20 10.00 Fair CLR 70.9 54.9 57% 30.01 0.0
05 19:15 S 16 G 22 10.00 Fair CLR 72.1 54.3 54% 30.01 0.0
05 18:55 S 14 10.00 Fair CLR 73.6 54 50% 30.02 0.0
05 18:35 S 14 10.00 Fair CLR 74.5 53.8 49% 30.02 0.0
05 18:15 S 16 10.00 Fair CLR 75 54 48% 78 30.01 0.0
05 17:55 S 13 G 18 10.00 Fair CLR 76.5 53.8 45% 78 30.02 0.0
05 17:35 S 12 10.00 Fair CLR 76.5 53.8 45% 78 30.01 0.0
05 17:15 S 13 G 22 10.00 Fair CLR 76.8 53.4 44% 78 30.01 0.0
05 16:55 SW 13 10.00 Fair CLR 79 52.7 40% 79 30.02 0.0
05 16:35 S 13 G 17 10.00 Fair CLR 78.3 53.4 42% 79 30.01 0.0
05 16:15 S 14 G 22 10.00 Partly Cloudy SCT050 78.8 52.7 40% 79 30.01 0.0
05 15:55 S 8 10.00 Fair CLR 79.7 53.2 40% 80 30.02 0.0
05 15:35 S 12 G 17 10.00 Fair CLR 79 52.9 40% 79 30.03 0.0
05 15:15 S 8 10.00 Partly Cloudy SCT049 79 52.5 40% 79 30.04 0.0
05 14:55 S 12 10.00 Partly Cloudy SCT049 78.8 52.3 40% 79 30.04 0.0
05 14:35 S 13 G 18 10.00 Partly Cloudy SCT049 78.6 52.9 41% 79 30.04 0.0
05 14:15 SE 14 G 18 10.00 Partly Cloudy SCT049 79 53.6 42% 79 30.05 0.0
05 13:55 S 16 10.00 Mostly Cloudy BKN049 78.1 54.1 78.8 61.2 44% 79 30.05 0.0
05 13:35 S 12 10.00 Mostly Cloudy BKN049 77.7 53.1 42% 79 30.06 0.0
05 13:15 S 13 10.00 Partly Cloudy SCT047 76.5 54.1 46% 78 30.06 0.0
05 12:55 S 12 G 18 10.00 Partly Cloudy SCT045 77.2 54.5 46% 79 30.07 0.0
05 12:35 S 10 G 17 10.00 Partly Cloudy SCT043 76.5 54 46% 78 30.07 0.0
05 12:15 S 12 G 17 10.00 Partly Cloudy SCT043 76.1 54.9 48% 78 30.08 0.0
05 11:55 SE 10 10.00 Fair CLR 75.2 54.5 49% 78 30.08 0.0
05 11:15 S 13 G 17 10.00 Fair CLR 73.8 54 50% 30.09 0.0
05 10:55 SW 9 10.00 Fair CLR 72.9 54.3 52% 30.09 0.0
05 10:35 S 8 10.00 Fair CLR 72 54.1 54% 30.09 0.0
05 10:15 S 10 10.00 Fair CLR 71.6 55.8 58% 30.09 0.0
05 09:55 SW 12 10.00 Fair CLR 70.3 55.6 60% 30.09 0.0
05 09:35 SW 9 10.00 Fair CLR 69.4 55.8 62% 30.09 0.0
05 09:15 SW 13 10.00 Fair CLR 68.2 55.6 64% 30.08 0.0
05 08:55 SW 10 10.00 Fair CLR 66.2 55.8 69% 30.08 0.0
05 08:35 SW 8 10.00 Fair CLR 65.1 56.1 73% 30.09 0.0
05 08:15 SW 8 10.00 Fair CLR 62.8 55.6 77% 30.08 0.0
05 07:55 SW 6 10.00 Fair CLR 60.4 54.7 60.8 52.9 81% 30.08 0.0
05 07:35 SW 7 10.00 Fair CLR 58.3 53.8 85% 30.07 0.0
05 07:15 S 5 10.00 Partly Cloudy SCT002 56.1 52.5 88% 30.07 0.0
05 06:55 S 7 10.00 Fair CLR 55.2 52.2 90% 30.06 0.0
05 06:35 S 6 10.00 Fair CLR 54.3 51.6 91% 30.05 0.0
05 06:15 S 6 10.00 Fair CLR 54.3 51.8 91% 30.04 0.0
05 05:55 S 6 10.00 Fair CLR 54.3 51.6 91% 30.04 0.0
05 05:35 S 6 10.00 Fair CLR 54 50.5 88% 30.04 0.0
05 05:15 S 5 10.00 Fair CLR 54.9 51.1 87% 30.04 0.0
05 04:55 S 5 10.00 Fair CLR 55.6 51.4 86% 30.03 0.0
05 04:35 S 6 10.00 Fair CLR 56.1 51.4 84% 30.03 0.0
05 04:15 S 5 10.00 Fair CLR 55.9 51.3 84% 30.03 0.0
05 03:55 S 6 10.00 Fair CLR 55.9 50.9 83% 30.03 0.0
05 03:35 S 6 10.00 Fair CLR 56.5 51.1 82% 30.03 0.0
05 03:15 S 6 10.00 Fair CLR 56.7 50.9 81% 30.02 0.0
05 02:55 S 6 10.00 Fair CLR 57.4 50.9 79% 30.03 0.0
05 02:35 S 7 10.00 Fair CLR 57.9 50.7 77% 30.03 0.0
05 02:15 S 7 10.00 Fair CLR 58.1 50.5 76% 30.03 0.0
05 01:55 S 7 10.00 Fair CLR 58.5 50.5 68.2 57.7 75% 30.04 0.0
05 01:35 S 8 10.00 Fair CLR 58.5 50.9 76% 30.04 0.0
05 01:15 S 8 10.00 Fair CLR 58.3 51.1 77% 30.04 0.0
05 00:55 S 7 10.00 Fair CLR 57.7 51.1 79% 30.05 0.0
05 00:35 S 8 10.00 Fair CLR 58.6 51.1 76% 30.05 0.0
05 00:15 S 6 10.00 Fair CLR 59.2 50.9 74% 30.04 0.0
04 23:55 S 6 10.00 Fair CLR 59.5 50.9 73% 30.05 0.0
04 23:35 S 6 10.00 Fair CLR 60.4 50.7 70% 30.05 0.0
04 23:15 S 7 10.00 Fair CLR 61.2 50.5 68% 30.05 0.0
04 22:55 S 7 10.00 Fair CLR 61.7 50.5 67% 30.05 0.0
04 22:35 S 8 10.00 Fair CLR 62.2 50.4 65% 30.05 0.0
04 22:15 S 8 10.00 Fair CLR 62.6 50.2 64% 30.05 0.0
04 21:55 S 8 10.00 Fair CLR 63.1 50 62% 30.04 0.0
04 21:35 S 7 10.00 Fair CLR 63.5 49.6 61% 30.04 0.0
04 21:15 S 7 10.00 Fair CLR 64 49.5 59% 30.04 0.0
04 20:55 S 8 10.00 Fair CLR 65.1 49.1 56% 30.03 0.0
04 20:35 S 8 10.00 Fair CLR 66.2 48.6 53% 30.02 0.0
04 20:15 S 9 10.00 Fair CLR 67.5 48.2 50% 30.02 0.0
04 19:55 S 12 10.00 Fair CLR 68.4 48.9 79.3 68.2 50% 30.01 0.0
04 19:35 S 10 10.00 Fair CLR 69.3 50.2 51% 30 0.0
04 19:15 S 13 G 21 10.00 Fair CLR 70.3 49.6 48% 30 0.0
04 18:55 S 12 G 21 10.00 Fair CLR 71.8 50.2 47% 29.99 0.0
04 18:35 S 13 G 21 10.00 Fair CLR 72.9 50.4 45% 30 0.0
04 18:15 S 16 10.00 Fair CLR 73.8 51.1 45% 29.99 0.0
04 17:55 S 14 10.00 Fair CLR 75.2 51.3 43% 78 29.99 0.0
04 17:35 S 16 G 23 7.00 Fair CLR 76.6 50.7 40% 78 29.98 0.0
04 17:15 S 12 10.00 Fair CLR 77.9 46 32% 78 29.98 0.0
04 16:55 S 8 10.00 Fair CLR 79 44.2 29% 79 29.98 0.0
04 16:35 SW 12 10.00 Fair CLR 78.4 42.8 28% 78 29.99 0.0
04 15:55 SW 14 10.00 Fair CLR 78.3 43.7 29% 78 30 0.0
04 15:35 S 8 G 21 10.00 Fair CLR 77.5 43 29% 78 30 0.0
04 15:15 S 6 10.00 Fair CLR 77.2 43 30% 78 30.01 0.0
04 14:55 SW 10 G 20 10.00 Fair CLR 78.3 43.7 29% 78 30.02 0.0
04 14:35 SW 9 G 18 10.00 Fair CLR 77.5 43.5 30% 78 30.02 0.0
04 14:15 SW 7 G 18 10.00 Fair CLR 76.3 43.2 31% 77 30.03 0.0
04 13:55 SW 8 10.00 Fair CLR 75.7 43 77.5 57.2 31% 77 30.04 0.0
04 13:35 W 9 10.00 Fair CLR 75.7 42.8 31% 77 30.04 0.0
04 13:15 SW 7 10.00 Fair CLR 75.4 42.6 31% 77 30.04 0.0
04 12:55 SW 8 10.00 Fair CLR 75.6 42.1 30% 77 30.05 0.0
04 12:35 SW 7 10.00 Fair CLR 74.1 42.6 32% 30.05 0.0
04 12:15 W 9 10.00 Fair CLR 73.9 40.5 30% 30.06 0.0
04 11:55 W 5 10.00 Fair CLR 73 45.7 38% 30.06 0.0
04 11:35 SW 7 10.00 Fair CLR 72.9 46.2 39% 30.07 0.0
04 11:15 S 9 10.00 Fair CLR 72.1 47.8 42% 30.07 0.0
04 10:55 SW 8 10.00 Fair CLR 71.2 48.6 45% 30.07 0.0
04 10:35 SW 9 10.00 Fair CLR 70.2 50 49% 30.08 0.0
04 10:15 SW 8 10.00 Fair CLR 68.4 50.5 53% 30.07 0.0
04 09:55 SW 9 10.00 Fair CLR 66.7 50.4 56% 30.07 0.0
04 09:35 SW 10 10.00 Fair CLR 65.5 51.3 60% 30.08 0.0
04 09:15 SW 8 10.00 Fair CLR 64 50.7 62% 30.08 0.0
04 08:55 SW 10 10.00 Fair CLR 62.6 51.1 66% 30.08 0.0
04 08:35 SW 8 10.00 Fair CLR 60.8 51.1 71% 30.07 0.0
04 08:15 S 7 10.00 Fair CLR 58.8 50 73% 30.08 0.0
04 07:55 S 7 10.00 Fair CLR 56.8 49.1 57 47.7 75% 30.08 0.0
04 07:35 S 7 10.00 Fair CLR 54.1 48.9 83% 30.08 0.0
04 07:15 S 6 10.00 Fair CLR 51.1 47.3 87% 30.09 0.0
04 06:55 S 5 10.00 Fair CLR 49.1 46.8 92% 48 30.08 0.0
04 06:35 S 3 10.00 Fair CLR 48 45.7 92% 30.08 0.0
04 06:15 S 3 10.00 Fair CLR 48.6 46 91% 30.07 0.0
04 05:55 S 5 10.00 Fair CLR 48.7 46.4 92% 47 30.07 0.0
04 05:35 S 5 10.00 Fair CLR 50 46.9 89% 49 30.07 0.0
04 05:15 S 5 10.00 Fair CLR 49.5 46.2 89% 48 30.07 0.0
04 04:55 S 5 10.00 Fair CLR 50.4 47.1 89% 30.08 0.0
04 04:35 SW 5 10.00 Fair CLR 50.2 46.9 89% 30.08 0.0
04 04:15 S 5 10.00 Fair CLR 50.9 47.1 87% 30.08 0.0
04 03:55 S 6 10.00 Fair CLR 50.9 47.1 87% 30.08 0.0
04 03:35 S 7 10.00 Fair CLR 51.6 47.3 85% 30.08 0.0
04 03:15 S 8 10.00 Fair CLR 51.8 47.3 85% 30.07 0.0
04 02:55 S 6 10.00 Fair CLR 52 46.9 83% 30.08 0.0
04 02:35 SW 6 10.00 Fair CLR 52.7 46.9 81% 30.08 0.0
04 02:15 SW 6 10.00 Fair CLR 52.5 46.9 81% 30.08 0.0
04 01:55 SW 7 10.00 Fair CLR 52.7 46.9 62.8 52.7 81% 30.08 0.0
04 01:35 SW 7 10.00 Fair CLR 53.4 46.9 79% 30.09 0.0
04 01:15 S 7 10.00 Fair CLR 54.3 46.8 76% 30.09 0.0
04 00:55 S 8 10.00 Fair CLR 54.3 46.9 76% 30.09 0.0
04 00:35 SW 7 10.00 Fair CLR 54.3 46.9 76% 30.09 0.0
04 00:15 S 9 10.00 Fair CLR 54.7 46.8 75% 30.09 0.0
03 23:55 S 9 10.00 Fair CLR 54.9 46.8 74% 30.09 0.0
03 23:35 S 8 10.00 Fair CLR 54.9 46.6 74% 30.09 0.0
03 23:15 S 8 10.00 Fair CLR 54.9 46.2 73% 30.08 0.0
03 22:55 S 8 10.00 Fair CLR 55 45.7 71% 30.09 0.0
03 22:35 S 8 10.00 Fair CLR 55 45.1 69% 30.08 0.0
03 22:15 S 10 10.00 Fair CLR 54.9 44.6 69% 30.08 0.0
03 21:55 S 7 10.00 Fair CLR 56.8 43.5 61% 30.07 0.0
03 21:35 S 7 10.00 Fair CLR 57 43.5 61% 30.06 0.0
03 21:15 S 7 10.00 Fair CLR 58.1 43.3 58% 30.06 0.0
03 20:55 S 7 10.00 Fair CLR 58.8 43.7 57% 30.05 0.0
03 20:35 S 6 10.00 Fair CLR 60.1 42.8 53% 30.04 0.0
03 20:15 S 6 10.00 Fair CLR 61.7 41.9 48% 30.04 0.0
03 19:55 S 5 10.00 Fair CLR 63.1 40.8 69.1 63 44% 30.03 0.0
03 19:35 SW 5 10.00 Fair CLR 64.8 39.9 40% 30.03 0.0
03 19:15 SW 6 10.00 Fair CLR 65.8 38.8 37% 30.03 0.0
03 18:55 SW 7 10.00 Fair CLR 66.9 37.8 34% 30.03 0.0
03 18:35 SW 8 10.00 Fair CLR 67.8 36.9 32% 30.03 0.0
03 18:15 W 8 10.00 Fair CLR 68.2 35.1 30% 30.03 0.0
03 17:55 W 9 10.00 Fair CLR 68.5 35.1 29% 30.03 0.0
03 17:35 SW 10 10.00 Fair CLR 68.4 36 30% 30.02 0.0
03 17:15 SW 9 10.00 Fair CLR 68.4 35.8 30% 30.02 0.0
03 16:55 W 6 10.00 Fair CLR 68.2 35.6 30% 30.03 0.0
03 16:35 W 7 10.00 Fair CLR 68.5 35.4 30% 30.04 0.0
03 16:15 NW 13 10.00 Fair CLR 68.2 35.8 30% 30.04 0.0
03 15:55 W 8 10.00 Fair CLR 67.5 36 31% 30.05 0.0
03 15:35 W 8 G 18 10.00 Fair CLR 67.5 35.1 30% 30.05 0.0
03 15:15 W 13 G 21 10.00 Fair CLR 66.6 35.4 32% 30.06 0.0
03 14:55 W 12 10.00 Fair CLR 67.1 36.7 33% 30.07 0.0
03 14:35 W 13 G 18 10.00 Fair CLR 65.8 35.2 32% 30.08 0.0
03 14:15 NW 12 10.00 Fair CLR 66 37.2 35% 30.09 0.0
Date Time (edt) Wind (mph) Vis. (mi.) Weather Sky Cond. Air Dwpt Max. Min. Relative Humidity Wind Chill (°F) Heat Index (°F) altimeter (in) sea level (mb) 1 hr 3 hr 6 hr
6 hour
Temperature (ºF) Pressure Precipitation (in)